Time;durP1;ratioP1;P1;durP2;ratioP2;P2;SDS_P1;SDS_P2;PMS_P1;PMS_P2;Temp;Humidity;BMP_temperature;BMP_pressure;BME280_temperature;BME280_humidity;BME280_pressure;Samples;Min_cycle;Max_cycle;Signal;HPM_P1;HPM_P2
2023/10/18 00:00:57;;;;;;;7.18;2.85;;;16.70;1.00;;;;;;6155470;23;20443;-30
2023/10/18 00:03:25;;;;;;;10.02;3.47;;;16.70;1.00;;;;;;6181648;23;20016;-29
2023/10/18 00:05:50;;;;;;;6.53;2.72;;;16.70;1.00;;;;;;6155937;23;20051;-27
2023/10/18 00:08:17;;;;;;;6.78;3.05;;;16.60;1.00;;;;;;6156303;23;20013;-29
2023/10/18 00:10:43;;;;;;;5.97;3.63;;;16.50;1.00;;;;;;6182629;23;20009;-28
2023/10/18 00:13:08;;;;;;;6.25;2.90;;;16.40;1.00;;;;;;6182727;23;20096;-28
2023/10/18 00:15:34;;;;;;;5.60;2.63;;;16.70;1.00;;;;;;6183316;23;20037;-28
2023/10/18 00:18:00;;;;;;;6.35;2.78;;;16.40;1.00;;;;;;6155826;23;20016;-28
2023/10/18 00:20:26;;;;;;;6.93;2.70;;;16.30;1.00;;;;;;6182838;23;20308;-28
2023/10/18 00:22:53;;;;;;;6.13;2.80;;;16.60;1.00;;;;;;6182663;23;20021;-28
2023/10/18 00:25:21;;;;;;;6.70;3.38;;;16.60;1.00;;;;;;6182356;23;20567;-29
2023/10/18 00:27:47;;;;;;;6.15;3.03;;;16.60;1.00;;;;;;6156543;23;20017;-30
2023/10/18 00:30:13;;;;;;;7.07;3.03;;;16.50;1.00;;;;;;6154155;23;20009;-28
2023/10/18 00:32:41;;;;;;;7.50;3.13;;;16.30;1.00;;;;;;6181156;23;20017;-28
2023/10/18 00:35:20;;;;;;;6.60;3.45;;;16.60;1.00;;;;;;6155017;23;20040;-28
2023/10/18 00:37:48;;;;;;;7.75;3.65;;;16.60;1.00;;;;;;6181749;23;20363;-28
2023/10/18 00:43:20;;;;;;;9.32;3.97;;;15.70;1.00;;;;;;6180459;23;20028;-28
2023/10/18 00:45:47;;;;;;;7.60;3.80;;;15.80;1.00;;;;;;6181801;23;20013;-28
2023/10/18 00:48:14;;;;;;;7.28;3.53;;;15.80;1.00;;;;;;6181428;23;20458;-28
2023/10/18 00:50:43;;;;;;;7.10;3.55;;;15.50;1.00;;;;;;6154875;23;20017;-28
2023/10/18 00:53:20;;;;;;;8.07;3.90;;;16.00;1.00;;;;;;6154419;23;20077;-28
2023/10/18 00:55:48;;;;;;;6.15;3.38;;;16.60;1.00;;;;;;6155183;23;20598;-28
2023/10/18 00:58:15;;;;;;;6.47;3.70;;;15.50;1.00;;;;;;6154405;23;20451;-28
2023/10/18 01:00:43;;;;;;;6.85;3.75;;;16.40;1.00;;;;;;6181891;23;20009;-28
2023/10/18 01:03:12;;;;;;;7.25;4.15;;;15.40;1.00;;;;;;6180768;23;20056;-28
2023/10/18 01:06:04;;;;;;;7.63;3.92;;;16.00;1.00;;;;;;6181494;23;20013;-29
2023/10/18 01:08:30;;;;;;;7.65;4.00;;;15.90;1.00;;;;;;6154956;23;20013;-29
2023/10/18 01:11:03;;;;;;;8.35;4.80;;;15.70;1.00;;;;;;6181861;23;20324;-28
2023/10/18 01:13:30;;;;;;;7.28;3.80;;;16.00;1.00;;;;;;6155157;23;20343;-28
2023/10/18 01:15:56;;;;;;;8.68;4.20;;;15.50;1.00;;;;;;6181847;23;20017;-28
2023/10/18 01:18:22;;;;;;;8.25;4.80;;;16.60;1.00;;;;;;6182275;23;20015;-28
2023/10/18 01:20:48;;;;;;;7.95;4.22;;;15.90;1.00;;;;;;6180871;23;20013;-28
2023/10/18 01:23:14;;;;;;;7.72;4.40;;;15.40;1.00;;;;;;6182289;23;20075;-28
2023/10/18 01:25:39;;;;;;;8.18;4.22;;;16.00;1.00;;;;;;6181729;23;20032;-30
2023/10/18 01:28:05;;;;;;;8.48;4.70;;;15.90;1.00;;;;;;6181620;23;20477;-28
2023/10/18 01:30:33;;;;;;;8.60;4.20;;;15.50;1.00;;;;;;6154974;23;20009;-28
2023/10/18 01:33:01;;;;;;;9.43;4.85;;;15.40;1.00;;;;;;6181395;23;20071;-28
2023/10/18 01:35:27;;;;;;;7.53;4.32;;;15.70;1.00;;;;;;6181913;23;20020;-28
2023/10/18 01:37:53;;;;;;;8.38;4.78;;;15.40;1.00;;;;;;6182177;23;20009;-28
2023/10/18 01:41:08;;;;;;;7.93;4.65;;;15.60;1.00;;;;;;6155445;23;20101;-28
2023/10/18 01:43:05;;;;;;;9.77;4.60;;;15.30;1.00;;;;;;6164451;23;20096;-28
2023/10/18 01:45:36;;;;;;;9.35;4.95;;;15.20;1.00;;;;;;6182137;23;20040;-28
2023/10/18 01:48:04;;;;;;;8.05;4.85;;;15.70;1.00;;;;;;6179239;23;20017;-30
2023/10/18 01:50:30;;;;;;;9.10;5.00;;;15.80;1.00;;;;;;6181197;23;20020;-29
2023/10/18 01:52:56;;;;;;;8.13;4.85;;;15.70;1.00;;;;;;6180704;23;20013;-30
2023/10/18 01:55:22;;;;;;;7.95;4.90;;;15.30;1.00;;;;;;6180960;23;20013;-29
2023/10/18 01:57:48;;;;;;;9.30;5.13;;;15.60;1.00;;;;;;6180891;23;20013;-28
2023/10/18 02:00:18;;;;;;;7.78;5.10;;;15.70;1.00;;;;;;6180697;23;20513;-28
2023/10/18 02:02:47;;;;;;;10.60;5.60;;;15.70;1.00;;;;;;6153262;23;20021;-28
2023/10/18 02:05:17;;;;;;;9.07;4.88;;;15.60;1.00;;;;;;6154347;23;20079;-28
2023/10/18 02:07:47;;;;;;;9.35;5.78;;;;;;;;;;6155518;23;20017;-28
2023/10/18 02:10:22;;;;;;;9.07;5.43;;;;;;;;;;6180115;23;20024;-29
2023/10/18 02:12:48;;;;;;;8.68;5.65;;;15.60;1.00;;;;;;6181558;23;20453;-28
2023/10/18 02:15:15;;;;;;;9.95;5.97;;;15.40;1.00;;;;;;6180914;23;20013;-28
2023/10/18 02:17:43;;;;;;;10.18;5.90;;;15.70;1.00;;;;;;6155791;23;20013;-29
2023/10/18 02:20:28;;;;;;;9.68;5.60;;;;;;;;;;6131527;23;20092;-31
2023/10/18 02:22:59;;;;;;;10.27;6.32;;;15.20;1.00;;;;;;6183053;23;20092;-28
2023/10/18 02:28:08;;;;;;;9.57;5.97;;;15.50;1.00;;;;;;6182563;23;20024;-28
2023/10/18 02:30:38;;;;;;;9.80;6.10;;;15.50;1.00;;;;;;6181844;23;20017;-29
2023/10/18 02:33:04;;;;;;;10.32;6.90;;;15.50;1.00;;;;;;6180267;23;20013;-28
2023/10/18 02:35:32;;;;;;;10.52;6.95;;;;;;;;;;6182312;23;20005;-29
2023/10/18 02:38:07;;;;;;;10.82;6.65;;;15.50;1.00;;;;;;6179842;23;20017;-27
2023/10/18 02:40:33;;;;;;;11.25;6.60;;;15.90;1.00;;;;;;6182044;23;20083;-27
2023/10/18 02:42:58;;;;;;;13.55;7.53;;;15.50;1.00;;;;;;6155655;23;20179;-27
2023/10/18 02:45:24;;;;;;;10.82;6.82;;;15.40;1.00;;;;;;6182523;23;20013;-28
2023/10/18 02:47:51;;;;;;;12.45;6.70;;;;;;;;;;6182747;23;20049;-28
2023/10/18 02:50:21;;;;;;;10.18;6.43;;;;;;;;;;6130588;23;20083;-28
2023/10/18 02:52:46;;;;;;;9.68;6.38;;;15.50;1.00;;;;;;6181758;23;20041;-28
2023/10/18 02:55:13;;;;;;;10.95;6.35;;;15.50;1.00;;;;;;6182628;23;20016;-29
2023/10/18 02:57:42;;;;;;;9.75;6.32;;;15.90;1.00;;;;;;6155392;23;20431;-30
2023/10/18 03:00:11;;;;;;;10.13;6.30;;;14.90;1.00;;;;;;6181774;23;20028;-29
2023/10/18 03:02:38;;;;;;;11.82;7.32;;;16.10;1.00;;;;;;6181939;23;20023;-28
2023/10/18 03:05:06;;;;;;;10.90;7.50;;;15.60;1.00;;;;;;6155435;23;20704;-29
2023/10/18 03:07:32;;;;;;;10.30;6.50;;;15.20;1.00;;;;;;6182678;23;20017;-28
2023/10/18 03:10:11;;;;;;;11.45;6.53;;;14.80;1.00;;;;;;6182321;23;20005;-28
2023/10/18 03:12:38;;;;;;;11.23;7.28;;;14.90;1.00;;;;;;6182903;23;20013;-28
2023/10/18 03:15:09;;;;;;;9.98;6.43;;;;;;;;;;6156107;23;20398;-29
2023/10/18 03:17:37;;;;;;;9.63;6.68;;;15.00;1.00;;;;;;6156876;23;20035;-29
2023/10/18 03:20:19;;;;;;;12.55;6.82;;;14.80;1.00;;;;;;6182813;23;20013;-28
2023/10/18 03:22:45;;;;;;;11.43;6.63;;;15.20;1.00;;;;;;6182367;23;20518;-28
2023/10/18 03:25:16;;;;;;;11.77;6.57;;;15.30;1.00;;;;;;6156643;23;20094;-29
2023/10/18 03:27:49;;;;;;;10.48;7.20;;;15.30;1.00;;;;;;6183664;23;20080;-28
2023/10/18 03:30:19;;;;;;;11.15;7.13;;;14.90;1.00;;;;;;6156133;23;20025;-29
2023/10/18 03:32:49;;;;;;;10.50;6.60;;;15.10;1.00;;;;;;6157250;23;20071;-29
2023/10/18 03:35:20;;;;;;;11.55;7.30;;;14.70;1.00;;;;;;6180291;23;20009;-29
2023/10/18 03:37:46;;;;;;;9.45;6.35;;;15.10;1.00;;;;;;6178783;23;20017;-29
2023/10/18 03:40:24;;;;;;;11.05;6.22;;;15.00;1.00;;;;;;6180663;23;20013;-29
2023/10/18 03:42:51;;;;;;;12.45;7.60;;;15.10;1.00;;;;;;6182416;23;20467;-28
2023/10/18 03:45:21;;;;;;;10.48;7.30;;;15.00;1.00;;;;;;6183389;23;20451;-29
2023/10/18 03:47:57;;;;;;;9.45;6.18;;;14.90;1.00;;;;;;6182495;23;20100;-28
2023/10/18 03:50:31;;;;;;;9.68;6.32;;;15.00;1.00;;;;;;6180952;23;20020;-29
2023/10/18 03:52:57;;;;;;;10.85;6.47;;;14.60;1.00;;;;;;6182539;23;20525;-29
2023/10/18 03:55:32;;;;;;;10.30;7.00;;;15.00;1.00;;;;;;6180954;23;20017;-29
2023/10/18 03:57:58;;;;;;;10.93;7.28;;;14.80;1.00;;;;;;6181247;23;20423;-28
2023/10/18 04:02:52;;;;;;;9.68;6.70;;;14.80;1.00;;;;;;6180320;23;20021;-28
2023/10/18 04:06:03;;;;;;;10.23;6.65;;;15.50;1.00;;;;;;6179629;23;20013;-29
2023/10/18 04:08:15;;;;;;;11.48;7.30;;;;;;;;;;6177702;23;20136;-29
2023/10/18 04:10:45;;;;;;;11.60;6.72;;;;;;;;;;6178853;23;20017;-29
2023/10/18 04:13:12;;;;;;;10.48;6.75;;;15.00;1.00;;;;;;6182294;23;20355;-30
2023/10/18 04:15:52;;;;;;;10.57;6.95;;;15.00;1.00;;;;;;6182495;23;20044;-28
2023/10/18 04:18:25;;;;;;;9.88;7.40;;;15.10;1.00;;;;;;6180745;23;20017;-28
2023/10/18 04:20:52;;;;;;;11.45;7.57;;;;;;;;;;6176089;23;20426;-29
2023/10/18 04:23:19;;;;;;;10.18;6.63;;;15.20;1.00;;;;;;6177776;23;20028;-28
2023/10/18 04:26:00;;;;;;;12.25;7.45;;;;;;;;;;6181116;23;20490;-29
2023/10/18 04:28:30;;;;;;;11.20;6.68;;;;;;;;;;6180357;23;20012;-28
2023/10/18 04:31:08;;;;;;;11.63;7.53;;;14.90;1.00;;;;;;6181924;23;20019;-30
2023/10/18 04:33:35;;;;;;;10.77;6.80;;;14.80;1.00;;;;;;6180031;23;20164;-29
2023/10/18 04:36:20;;;;;;;12.98;7.05;;;14.90;1.00;;;;;;6182151;23;20078;-29
2023/10/18 04:38:47;;;;;;;10.23;7.03;;;14.90;1.00;;;;;;6182162;23;20012;-29
2023/10/18 04:41:28;;;;;;;13.65;7.90;;;14.50;1.00;;;;;;6181535;23;20087;-28
2023/10/18 04:44:38;;;;;;;14.98;8.27;;;14.90;1.00;;;;;;6181978;23;20016;-28
2023/10/18 04:46:47;;;;;;;15.38;8.55;;;15.00;1.00;;;;;;6162129;23;20023;-30
2023/10/18 04:54:17;;;;;;;14.75;8.38;;;15.30;1.00;;;;;;6179428;23;20545;-29
2023/10/18 04:56:44;;;;;;;15.30;7.95;;;15.60;1.00;;;;;;6153989;23;20013;-28
2023/10/18 05:04:32;;;;;;;12.68;7.25;;;15.50;1.00;;;;;;6180081;23;20335;-29
2023/10/18 05:07:15;;;;;;;11.80;7.70;;;15.30;1.00;;;;;;6155073;23;20017;-30
2023/10/18 05:09:43;;;;;;;11.85;8.20;;;;;;;;;;6180398;23;20949;-29
2023/10/18 05:17:30;;;;;;;12.18;8.52;;;;;;;;;;6180985;23;20013;-28
2023/10/18 05:19:56;;;;;;;13.40;7.72;;;14.80;1.00;;;;;;6155267;23;20394;-29
2023/10/18 05:22:28;;;;;;;12.80;8.10;;;15.90;1.00;;;;;;6179432;23;20017;-29
2023/10/18 05:27:46;;;;;;;13.30;7.75;;;15.30;1.00;;;;;;6180633;23;20024;-29
2023/10/18 05:30:16;;;;;;;11.40;7.70;;;;;;;;;;6154348;23;20019;-29
2023/10/18 05:35:34;;;;;;;13.82;7.07;;;15.40;1.00;;;;;;6182356;23;20479;-28
2023/10/18 05:43:05;;;;;;;12.43;5.80;;;16.10;1.00;;;;;;6182547;23;20023;-29
2023/10/18 05:45:34;;;;;;;12.73;6.55;;;15.50;1.00;;;;;;6182668;23;20012;-28
2023/10/18 05:48:03;;;;;;;10.38;6.65;;;15.40;1.00;;;;;;6182785;23;20020;-29
2023/10/18 05:50:35;;;;;;;9.45;6.32;;;16.30;1.00;;;;;;6182469;23;20013;-30
2023/10/18 05:53:06;;;;;;;9.95;5.93;;;16.20;1.00;;;;;;6178936;23;20028;-29
2023/10/18 05:55:33;;;;;;;9.73;6.43;;;15.30;1.00;;;;;;6183336;23;20394;-28
2023/10/18 05:58:04;;;;;;;10.95;6.60;;;15.30;1.00;;;;;;6181956;23;20009;-28
2023/10/18 06:00:33;;;;;;;9.57;5.65;;;15.80;1.00;;;;;;6182260;23;20076;-28
2023/10/18 06:02:59;;;;;;;9.50;6.07;;;15.50;1.00;;;;;;6184344;23;20466;-29
2023/10/18 06:05:27;;;;;;;10.10;6.57;;;16.50;1.00;;;;;;6183803;23;20025;-28
2023/10/18 06:07:53;;;;;;;10.70;6.53;;;16.10;1.00;;;;;;6180489;23;20013;-29
2023/10/18 06:10:23;;;;;;;11.68;5.22;;;16.50;1.00;;;;;;6179343;23;20017;-29
2023/10/18 06:12:49;;;;;;;9.43;5.93;;;16.10;1.00;;;;;;6182686;23;20017;-29
2023/10/18 06:15:30;;;;;;;8.90;4.72;;;16.70;1.00;;;;;;6184245;23;20013;-28
2023/10/18 06:17:57;;;;;;;7.85;4.25;;;16.50;1.00;;;;;;6184628;23;20012;-28
2023/10/18 06:20:29;;;;;;;7.95;4.68;;;16.60;1.00;;;;;;6182216;23;20479;-29
2023/10/18 06:23:39;;;;;;;10.07;5.80;;;16.00;1.00;;;;;;6182780;23;20017;-30
2023/10/18 06:25:49;;;;;;;7.95;4.72;;;15.70;1.00;;;;;;6179449;23;20021;-29
2023/10/18 06:28:21;;;;;;;7.97;4.32;;;15.60;1.00;;;;;;6184464;23;20013;-29
2023/10/18 06:30:50;;;;;;;9.50;4.75;;;15.50;1.00;;;;;;6183789;23;20020;-28
2023/10/18 06:33:19;;;;;;;8.00;4.32;;;16.60;1.00;;;;;;6183775;23;20430;-28
2023/10/18 06:35:51;;;;;;;8.38;4.93;;;16.40;1.00;;;;;;6157418;23;20455;-28
2023/10/18 06:38:22;;;;;;;8.15;4.35;;;16.80;1.00;;;;;;6184003;23;20451;-28
2023/10/18 06:40:53;;;;;;;8.43;4.70;;;15.50;1.00;;;;;;6183600;23;20020;-29
2023/10/18 06:43:22;;;;;;;7.97;4.60;;;16.80;1.00;;;;;;6134082;23;20064;-29
2023/10/18 06:45:48;;;;;;;7.95;5.03;;;15.80;1.00;;;;;;6183594;23;20463;-28
2023/10/18 06:48:15;;;;;;;8.45;4.50;;;;;;;;;;6183874;23;20454;-28
2023/10/18 06:50:41;;;;;;;8.73;5.05;;;16.60;1.00;;;;;;6183694;23;20013;-28
2023/10/18 06:53:09;;;;;;;9.82;5.78;;;16.50;1.00;;;;;;6157182;23;20021;-28
2023/10/18 06:55:56;;;;;;;12.05;6.10;;;16.90;1.00;;;;;;6157375;23;20040;-28
2023/10/18 07:01:00;;;;;;;8.20;5.07;;;15.50;1.00;;;;;;6157058;23;20395;-28
2023/10/18 07:03:33;;;;;;;8.90;5.28;;;15.60;1.00;;;;;;6183396;23;20020;-29
2023/10/18 07:06:04;;;;;;;7.45;4.07;;;15.60;1.00;;;;;;6184019;23;20390;-29
2023/10/18 07:08:33;;;;;;;8.80;5.35;;;16.60;1.00;;;;;;6183608;23;20096;-29
2023/10/18 07:11:01;;;;;;;8.38;4.72;;;16.70;1.00;;;;;;6183655;23;20048;-28
2023/10/18 07:13:38;;;;;;;8.45;4.75;;;16.70;1.00;;;;;;6183381;23;20020;-29
2023/10/18 07:16:12;;;;;;;8.20;5.47;;;15.60;1.00;;;;;;6183884;23;20006;-28
2023/10/18 07:18:44;;;;;;;10.50;6.07;;;16.60;1.00;;;;;;6156792;23;20020;-28
2023/10/18 07:21:10;;;;;;;8.02;4.55;;;16.60;1.00;;;;;;6156825;23;20152;-28
2023/10/18 07:23:37;;;;;;;8.30;4.15;;;16.70;1.00;;;;;;6156733;23;20013;-28
2023/10/18 07:26:07;;;;;;;9.75;5.35;;;16.10;1.00;;;;;;6183687;23;20518;-28
2023/10/18 07:28:35;;;;;;;7.25;4.43;;;16.50;1.00;;;;;;6183336;23;20462;-28
2023/10/18 07:31:10;;;;;;;7.60;4.25;;;16.30;1.00;;;;;;6183077;23;20013;-29
2023/10/18 07:33:40;;;;;;;11.23;6.28;;;15.70;1.00;;;;;;6183121;23;20052;-28
2023/10/18 07:36:11;;;;;;;7.80;4.30;;;16.90;1.00;;;;;;6183249;23;20455;-28
2023/10/18 07:38:39;;;;;;;8.77;5.97;;;16.70;1.00;;;;;;6156732;23;20084;-28
2023/10/18 07:41:07;;;;;;;9.20;5.68;;;16.70;1.00;;;;;;6156525;23;20012;-28
2023/10/18 07:43:36;;;;;;;9.45;5.32;;;16.30;1.00;;;;;;6183430;23;20013;-28
2023/10/18 07:46:09;;;;;;;7.38;4.45;;;15.80;1.00;;;;;;6156845;23;20017;-27
2023/10/18 07:48:38;;;;;;;8.52;5.32;;;17.90;1.00;;;;;;6157190;23;20017;-29
2023/10/18 07:51:23;;;;;;;9.20;4.82;;;16.10;1.00;;;;;;6156431;23;20028;-28
2023/10/18 07:53:53;;;;;;;7.47;4.80;;;15.90;1.00;;;;;;6182970;23;20015;-29
2023/10/18 07:56:26;;;;;;;8.88;5.40;;;17.10;1.00;;;;;;6183342;23;20427;-28
2023/10/18 07:58:55;;;;;;;8.45;4.30;;;16.70;1.00;;;;;;6183179;23;20011;-28
2023/10/18 08:04:06;;;;;;;7.40;4.03;;;15.60;1.00;;;;;;6183358;23;20025;-28
2023/10/18 08:06:33;;;;;;;8.10;4.35;;;16.70;1.00;;;;;;6183033;23;20041;-30
2023/10/18 08:09:05;;;;;;;9.02;4.65;;;17.10;1.00;;;;;;6183241;23;20359;-28
2023/10/18 08:11:34;;;;;;;7.43;4.47;;;;;;;;;;6183233;23;20365;-28
2023/10/18 08:14:03;;;;;;;7.43;4.05;;;16.30;1.00;;;;;;6183101;23;20013;-28
2023/10/18 08:16:43;;;;;;;8.60;5.50;;;16.50;1.00;;;;;;6183102;23;20008;-28
2023/10/18 08:19:09;;;;;;;6.95;4.18;;;16.80;1.00;;;;;;6182746;23;20013;-28
2023/10/18 08:21:38;;;;;;;7.82;4.55;;;15.70;1.00;;;;;;6182611;23;20344;-27
2023/10/18 08:24:08;;;;;;;8.35;4.25;;;16.60;1.00;;;;;;6182606;23;20084;-28
2023/10/18 08:26:47;;;;;;;6.80;4.25;;;16.90;1.00;;;;;;6156366;23;20013;-33
2023/10/18 08:29:16;;;;;;;9.15;5.05;;;16.30;1.00;;;;;;6156396;23;20021;-28
2023/10/18 08:31:48;;;;;;;8.10;4.90;;;16.70;1.00;;;;;;6182704;23;20009;-28
2023/10/18 08:34:15;;;;;;;6.45;3.75;;;16.80;1.00;;;;;;6175888;23;20017;-28
2023/10/18 08:36:50;;;;;;;6.72;4.07;;;16.80;1.00;;;;;;6182998;23;20382;-28
2023/10/18 08:39:25;;;;;;;7.30;4.60;;;16.80;1.00;;;;;;6181114;23;20076;-28
2023/10/18 08:42:12;;;;;;;7.90;4.32;;;16.10;1.00;;;;;;6182312;23;20104;-28
2023/10/18 08:44:40;;;;;;;8.30;4.28;;;15.80;1.00;;;;;;6182608;23;20458;-28
2023/10/18 08:49:44;;;;;;;8.02;4.28;;;16.60;1.00;;;;;;6182894;23;20052;-28
2023/10/18 08:52:10;;;;;;;7.65;3.90;;;16.60;1.00;;;;;;6180816;23;20155;-28
2023/10/18 08:54:39;;;;;;;10.63;5.68;;;16.90;1.00;;;;;;6182190;23;20092;-30
2023/10/18 08:57:34;;;;;;;6.85;3.70;;;16.80;1.00;;;;;;6181391;23;20009;-29
2023/10/18 09:03:07;;;;;;;5.93;3.50;;;15.80;1.00;;;;;;6132298;23;20024;-28
2023/10/18 09:05:35;;;;;;;9.43;4.35;;;16.30;1.00;;;;;;6182897;23;20020;-28
2023/10/18 09:08:04;;;;;;;7.43;3.90;;;16.60;1.00;;;;;;6182523;23;20009;-29
2023/10/18 09:10:43;;;;;;;7.70;3.95;;;16.80;1.00;;;;;;6181915;23;20024;-28
2023/10/18 09:15:56;;;;;;;6.97;3.40;;;16.40;1.00;;;;;;6182788;23;20035;-28
2023/10/18 09:18:25;;;;;;;8.32;4.18;;;16.40;1.00;;;;;;6183193;23;20406;-27
2023/10/18 09:20:55;;;;;;;7.10;4.15;;;16.70;1.00;;;;;;6182333;23;20005;-29
2023/10/18 09:23:25;;;;;;;7.72;3.92;;;16.90;1.00;;;;;;6182925;23;20048;-28
2023/10/18 09:26:00;;;;;;;6.68;3.35;;;15.90;1.00;;;;;;6182728;23;20052;-28
2023/10/18 09:28:28;;;;;;;8.23;5.15;;;16.90;1.00;;;;;;6185178;23;20013;-28
2023/10/18 09:31:00;;;;;;;7.53;3.53;;;16.70;1.00;;;;;;6184172;23;20141;-28
2023/10/18 09:33:33;;;;;;;7.20;3.70;;;15.90;1.00;;;;;;6183359;23;20017;-28
2023/10/18 09:36:02;;;;;;;7.25;3.70;;;16.40;1.00;;;;;;6185413;23;20032;-29
2023/10/18 09:38:44;;;;;;;7.28;3.63;;;16.20;1.00;;;;;;6185114;23;20021;-29
2023/10/18 09:41:10;;;;;;;6.97;3.42;;;16.40;1.00;;;;;;6187668;23;20009;-28
2023/10/18 09:43:36;;;;;;;6.80;4.25;;;16.50;1.00;;;;;;6187023;23;20473;-28
2023/10/18 09:46:05;;;;;;;6.18;3.20;;;16.40;1.00;;;;;;6187818;23;20040;-28
2023/10/18 09:48:32;;;;;;;5.78;3.25;;;16.90;1.00;;;;;;6183743;23;20017;-27
2023/10/18 09:51:09;;;;;;;6.90;3.90;;;16.90;1.00;;;;;;6207189;23;20017;-28
2023/10/18 09:53:36;;;;;;;8.40;3.67;;;16.90;1.00;;;;;;6184743;23;20068;-28
2023/10/18 09:56:02;;;;;;;7.38;3.40;;;16.40;1.00;;;;;;6184428;23;20067;-28
2023/10/18 09:58:29;;;;;;;6.03;3.08;;;16.10;1.00;;;;;;6184745;23;20009;-28
2023/10/18 10:00:58;;;;;;;6.70;3.83;;;15.70;1.00;;;;;;6184185;23;20027;-28
2023/10/18 10:03:25;;;;;;;5.70;3.15;;;16.40;1.00;;;;;;6184046;23;20017;-28
2023/10/18 10:05:52;;;;;;;6.47;3.53;;;16.50;1.00;;;;;;6182322;23;20016;-30
2023/10/18 10:08:23;;;;;;;6.90;3.90;;;16.40;1.00;;;;;;6184194;23;20474;-28
2023/10/18 10:10:49;;;;;;;7.15;4.63;;;17.00;1.00;;;;;;6183784;23;20017;-29
2023/10/18 10:13:18;;;;;;;8.15;3.70;;;16.40;1.00;;;;;;6184375;23;20064;-28
2023/10/18 10:15:54;;;;;;;7.32;3.65;;;16.70;1.00;;;;;;6184528;23;20009;-29
2023/10/18 10:18:42;;;;;;;7.82;3.30;;;16.40;1.00;;;;;;6183370;23;20351;-29
2023/10/18 10:21:12;;;;;;;6.00;3.38;;;16.50;1.00;;;;;;6183929;23;20013;-28
2023/10/18 10:23:41;;;;;;;6.10;3.58;;;16.20;1.00;;;;;;6182783;23;20021;-29
2023/10/18 10:26:11;;;;;;;6.90;4.35;;;16.40;1.00;;;;;;6182164;23;20155;-28
2023/10/18 10:31:57;;;;;;;9.00;4.10;;;15.90;1.00;;;;;;6184096;23;20028;-28
2023/10/18 10:34:44;;;;;;;6.43;3.40;;;16.20;1.00;;;;;;6183977;23;20013;-28
2023/10/18 10:37:20;;;;;;;6.07;3.08;;;16.60;1.00;;;;;;6184068;23;20390;-28
2023/10/18 10:40:14;;;;;;;6.10;3.55;;;17.00;1.00;;;;;;6157324;23;20088;-28
2023/10/18 10:42:44;;;;;;;6.72;3.45;;;16.60;1.00;;;;;;6183498;23;20191;-27
2023/10/18 10:45:38;;;;;;;6.13;3.40;;;15.80;1.00;;;;;;6157036;23;20080;-28
2023/10/18 10:48:21;;;;;;;5.68;2.97;;;16.50;1.00;;;;;;6172969;23;20017;-28
2023/10/18 10:53:54;;;;;;;6.63;3.40;;;16.60;1.00;;;;;;6183883;23;20032;-28
2023/10/18 10:56:29;;;;;;;6.30;3.17;;;16.30;1.00;;;;;;6157554;23;20084;-28
2023/10/18 11:04:57;;;;;;;6.50;3.55;;;16.90;1.00;;;;;;6184112;23;20044;-28
2023/10/18 11:07:25;;;;;;;7.22;3.65;;;15.80;1.00;;;;;;6184131;23;20021;-29
2023/10/18 11:10:14;;;;;;;7.13;4.50;;;16.00;1.00;;;;;;6183692;23;20077;-28
2023/10/18 11:12:39;;;;;;;6.35;3.63;;;16.80;1.00;;;;;;6181927;23;20021;-28
2023/10/18 11:15:16;;;;;;;7.22;3.45;;;16.70;1.00;;;;;;6182344;23;20019;-28
2023/10/18 11:17:47;;;;;;;6.18;3.10;;;16.80;1.00;;;;;;6183649;23;20009;-28
2023/10/18 11:20:19;;;;;;;5.80;3.40;;;16.80;1.00;;;;;;6181390;23;20504;-29
2023/10/18 11:22:47;;;;;;;6.80;3.00;;;17.00;1.00;;;;;;6156885;23;20041;-29
2023/10/18 11:25:19;;;;;;;5.55;3.00;;;16.70;1.00;;;;;;6182944;23;20063;-28
2023/10/18 11:27:45;;;;;;;6.47;3.30;;;16.70;1.00;;;;;;6156710;23;20009;-28
2023/10/18 11:30:22;;;;;;;6.75;3.10;;;16.80;1.00;;;;;;6156334;23;20028;-28
2023/10/18 11:32:54;;;;;;;6.13;3.13;;;;;;;;;;6158583;23;20024;-29
2023/10/18 11:35:42;;;;;;;6.20;3.40;;;16.70;1.00;;;;;;6181318;23;20139;-28
2023/10/18 11:38:12;;;;;;;5.53;3.05;;;15.80;1.00;;;;;;6182322;23;20021;-28
2023/10/18 11:40:48;;;;;;;6.82;3.20;;;16.30;1.00;;;;;;6180992;23;20094;-28
2023/10/18 11:43:25;;;;;;;5.55;2.95;;;16.50;1.00;;;;;;6183033;23;20017;-28
2023/10/18 11:46:05;;;;;;;6.47;2.88;;;17.00;1.00;;;;;;6183709;23;20020;-28
2023/10/18 11:48:35;;;;;;;5.80;2.97;;;16.50;1.00;;;;;;6181342;23;20036;-28
2023/10/18 11:51:06;;;;;;;7.00;3.03;;;16.50;1.00;;;;;;6179266;23;20013;-28
2023/10/18 11:53:33;;;;;;;6.57;3.00;;;17.00;1.00;;;;;;6175006;23;20048;-28
2023/10/18 11:56:05;;;;;;;6.25;2.80;;;16.60;1.00;;;;;;6176263;23;20462;-28
2023/10/18 11:58:33;;;;;;;6.55;2.92;;;16.70;1.00;;;;;;6177675;23;20462;-28
2023/10/18 12:01:05;;;;;;;5.75;3.00;;;16.20;1.00;;;;;;6174929;23;20024;-28
2023/10/18 12:03:35;;;;;;;8.35;3.25;;;16.60;1.00;;;;;;6177603;23;20020;-28
2023/10/18 12:06:03;;;;;;;6.38;3.10;;;16.50;1.00;;;;;;6175234;23;20055;-28
2023/10/18 12:08:33;;;;;;;6.65;3.10;;;17.10;1.00;;;;;;6177194;23;20463;-29
2023/10/18 12:11:03;;;;;;;5.93;3.20;;;16.50;1.00;;;;;;6174811;23;20028;-28
2023/10/18 12:13:29;;;;;;;6.13;3.00;;;;;;;;;;6175733;23;20332;-28
2023/10/18 12:16:00;;;;;;;6.40;3.38;;;17.00;1.00;;;;;;6177286;23;20013;-28
2023/10/18 12:18:27;;;;;;;7.30;2.92;;;16.50;1.00;;;;;;6150575;23;20017;-29
2023/10/18 12:21:00;;;;;;;6.38;3.33;;;;;;;;;;5078253;27;20459;-28
2023/10/18 12:23:26;;;;;;;7.15;3.75;;;;;;;;;;5059567;28;20067;-29
2023/10/18 12:25:52;;;;;;;6.05;3.00;;;;;;;;;;5059012;28;20491;-28
2023/10/18 12:28:27;;;;;;;6.90;3.20;;;;;;;;;;5060505;28;20045;-28
2023/10/18 12:30:54;;;;;;;8.05;4.07;;;16.70;1.00;;;;;;5060298;28;20059;-29
2023/10/18 12:33:25;;;;;;;8.75;3.17;;;16.80;1.00;;;;;;5057795;28;20048;-27
2023/10/18 12:35:51;;;;;;;6.00;3.05;;;;;;;;;;5060712;28;20194;-28
2023/10/18 12:38:31;;;;;;;7.20;3.80;;;;;;;;;;5059530;28;20048;-29
2023/10/18 12:41:19;;;;;;;7.53;3.30;;;16.50;1.00;;;;;;5058464;28;20131;-28
2023/10/18 12:43:45;;;;;;;7.15;3.05;;;16.60;1.00;;;;;;5060257;28;20045;-29
2023/10/18 12:46:17;;;;;;;8.65;3.13;;;;;;;;;;5059662;28;20045;-28
2023/10/18 12:48:44;;;;;;;7.28;3.28;;;;;;;;;;5061579;28;20511;-27
2023/10/18 12:51:12;;;;;;;6.18;3.25;;;;;;;;;;5060352;28;20044;-28
2023/10/18 12:53:43;;;;;;;6.63;3.35;;;16.70;1.00;;;;;;5061144;28;20051;-28
2023/10/18 12:56:23;;;;;;;6.47;3.05;;;16.50;1.00;;;;;;5060311;28;20372;-27
2023/10/18 12:59:22;;;;;;;5.47;3.03;;;;;;;;;;5057527;28;20518;-28
2023/10/18 13:01:46;;;;;;;5.88;2.83;;;16.60;1.00;;;;;;5058051;28;20555;-28
2023/10/18 13:04:18;;;;;;;7.82;3.67;;;;;;;;;;5059460;28;20033;-27
2023/10/18 13:06:48;;;;;;;7.13;3.05;;;;;;;;;;5055956;28;20455;-29
2023/10/18 13:11:44;;;;;;;5.72;3.00;;;16.70;1.00;;;;;;5055981;28;20044;-27
2023/10/18 13:14:14;;;;;;;7.03;3.40;;;;;;;;;;5057917;28;20053;-27
2023/10/18 13:16:44;;;;;;;6.20;3.13;;;;;;;;;;5055475;28;20713;-27
2023/10/18 13:19:15;;;;;;;6.25;2.88;;;;;;;;;;5057016;28;20218;-28
2023/10/18 13:21:43;;;;;;;5.78;3.10;;;;;;;;;;5058746;28;20076;-28
2023/10/18 13:26:55;;;;;;;6.07;2.53;;;;;;;;;;5055571;28;20056;-29
2023/10/18 13:31:50;;;;;;;5.20;2.83;;;;;;;;;;5047071;28;20088;-28
2023/10/18 13:34:19;;;;;;;6.78;2.95;;;16.70;1.00;;;;;;5042503;28;20088;-28
2023/10/18 13:36:47;;;;;;;6.03;2.63;;;;;;;;;;5044280;28;20037;-28
2023/10/18 13:39:13;;;;;;;5.30;2.60;;;17.10;1.00;;;;;;5045487;28;20057;-28
2023/10/18 13:41:41;;;;;;;5.90;2.95;;;16.60;1.00;;;;;;5044947;28;20043;-30
2023/10/18 13:44:08;;;;;;;6.38;3.05;;;16.70;1.00;;;;;;5045781;28;20053;-27
2023/10/18 13:46:36;;;;;;;6.07;2.78;;;;;;;;;;5046677;28;20397;-28
2023/10/18 13:49:03;;;;;;;4.95;2.30;;;16.80;1.00;;;;;;5042394;28;20186;-28
2023/10/18 13:51:34;;;;;;;6.18;2.40;;;16.70;1.00;;;;;;5042969;28;20044;-27
2023/10/18 13:54:01;;;;;;;5.30;2.30;;;17.10;1.00;;;;;;5042056;28;20045;-28
2023/10/18 13:56:26;;;;;;;6.18;2.80;;;16.90;1.00;;;;;;5043324;28;20049;-27
2023/10/18 13:58:52;;;;;;;4.20;2.10;;;16.30;1.00;;;;;;5043149;28;20063;-28
2023/10/18 14:01:18;;;;;;;6.82;2.67;;;16.00;1.00;;;;;;5044445;28;20037;-28
2023/10/18 14:03:47;;;;;;;5.90;3.20;;;17.10;1.00;;;;;;5046596;28;20416;-29
2023/10/18 14:06:14;;;;;;;4.72;2.38;;;16.20;1.00;;;;;;5044906;28;20037;-27
2023/10/18 14:08:44;;;;;;;5.68;2.67;;;16.70;1.00;;;;;;5042776;28;20515;-27
2023/10/18 14:11:13;;;;;;;5.32;2.30;;;16.20;1.00;;;;;;5040813;28;20508;-27
2023/10/18 14:13:43;;;;;;;5.47;2.30;;;16.50;1.00;;;;;;5045128;28;20071;-28
2023/10/18 14:16:12;;;;;;;5.68;2.22;;;16.70;1.00;;;;;;5043208;28;20045;-28
2023/10/18 14:18:43;;;;;;;6.88;2.67;;;;;;;;;;5042577;28;20471;-27
2023/10/18 14:21:14;;;;;;;6.47;3.40;;;16.60;1.00;;;;;;5044224;28;20052;-27
2023/10/18 14:23:47;;;;;;;10.07;2.67;;;;;;;;;;5043680;28;20041;-28
2023/10/18 14:26:14;;;;;;;5.18;2.15;;;16.00;1.00;;;;;;5046093;28;20408;-28
2023/10/18 14:28:43;;;;;;;5.72;2.50;;;16.50;1.00;;;;;;5040056;28;20041;-28
2023/10/18 14:31:12;;;;;;;5.88;2.70;;;16.80;1.00;;;;;;5042013;28;20049;-28
2023/10/18 14:33:42;;;;;;;4.90;2.33;;;16.20;1.00;;;;;;5042982;28;20056;-28